バルセロナ・エル・プラット国際空港の過去48時間の天気

バルセロナ・エル・プラット国際空港 (Barcelona / Aeropuerto)

現在時刻: 12/8 07:22 CET (12/8 06:22 UTC) 以下の時間は現地時間です。

過去48時間のMETAR気象情報
時間 風向 風速(m/s) 視程 気温(℃) 湿度(%) 気圧(hPa) 天気現象
8 07:00 北北西 3 10km以上 9 87 1009
8 06:30 北北西 4 10km以上 9 87 1009
8 06:00 北北西 3 10km以上 10 82 1009
8 05:30 北北西 4 10km以上 10 82 1009
8 05:00 北北西 4 10km以上 10 82 1009
8 04:30 北北西 4 10km以上 10 82 1010
8 04:00 北北西 4 10km以上 10 82 1010
8 03:30 北西 4 10km以上 10 82 1010
8 03:00 北北西 3 10km以上 10 82 1010
8 02:30 北北西 3 10km以上 11 76 1010
8 02:00 北西 3 10km以上 11 82 1010
8 01:30 北西 3 10km以上 11 82 1011
8 01:00 北北西 3 10km以上 11 82 1011
8 00:30 北西 3 10km以上 11 82 1011
8 00:00 北北西 3 10km以上 11 82 1012
7 23:30 北西 3 9000m 11 87 1012
7 23:00 北西 3 9000m 11 87 1012
7 22:30 不定 1 10km以上 11 87 1012
7 22:00 静穏 0 9000m 11 87 1012
7 21:30 北北西 2 9000m 12 82 1012
7 21:00 北西 2 9000m 12 88 1012
7 20:30 不定 1 9000m 12 82 1012
7 20:00 不定 1 9000m 12 82 1012
7 19:30 西 2 9000m 12 88 1012
7 19:00 南西 2 9000m 13 82 1012
7 18:30 南西 2 9000m 13 82 1012
7 18:00 南南西 2 10km以上 13 82 1012
7 17:30 南西 2 10km以上 13 82 1012
7 17:00 南南西 3 10km以上 14 77 1012
7 16:30 不定 1 10km以上 14 82 1012
7 16:00 南西 2 9000m 14 77 1012
7 15:00 不定 1 10km以上 14 67 1012
7 14:30 不定 1 10km以上 14 67 1013
7 14:00 不定 1 10km以上 14 63 1013
7 13:30 北西 2 10km以上 14 63 1013
7 13:00 北西 4 10km以上 13 67 1014
7 12:30 北西 4 10km以上 13 67 1014
7 11:30 北西 4 10km以上 12 71 1015
7 10:30 北西 5 10km以上 10 82 1015
7 10:00 北北西 6 8000m 9 87 1014
7 09:30 北西 6 8000m 8 87 1014
7 09:00 北北西 6 9000m 8 87 1014
7 08:30 北北西 5 8000m 8 87 1014
7 08:00 北北西 5 8000m 8 87 1014
7 07:30 北北西 5 9000m 8 87 1014
7 07:00 北北西 5 10km以上 8 87 1014
7 06:30 北西 6 10km以上 8 87 1014
7 06:00 北北西 3 10km以上 8 87 1014
7 05:30 北西 5 10km以上 9 81 1014
7 05:00 北北西 4 9000m 9 87 1014
7 04:30 北北西 2 7000m 8 87 1014
7 04:00 北北西 4 8000m 9 87 1014
7 03:30 西北西 3 8000m 9 87 1015
7 03:00 北北西 4 8000m 9 87 1014
7 02:30 北西 4 8000m 9 87 1014
7 02:00 北北西 4 8000m 9 87 1015
7 01:30 北西 4 6000m 9 93 1015
7 01:00 北西 3 6000m 9 93 1015
7 00:30 北北西 3 6000m 9 93 1015
7 00:00 北北西 3 7000m 9 93 1015
6 23:30 北西 3 8000m 9 93 1015
6 23:00 北北西 3 8000m 9 93 1015
6 22:30 北西 2 9000m 9 93 1015
6 22:00 北北西 2 10km以上 9 93 1015
6 21:30 北北西 2 10km以上 10 87 1015
6 21:00 北西 2 10km以上 10 87 1015
6 20:30 北北西 2 10km以上 10 94 1015
LEBL 080600Z 33006KT 9999 FEW025 09/07 Q1009 NOSIG
LEBL 080530Z 33007KT 9999 FEW010 09/07 Q1009 NOSIG
LEBL 080500Z 33006KT 9999 FEW010 10/07 Q1009 NOSIG
LEBL 080430Z 33007KT 9999 FEW018 10/07 Q1009 NOSIG
LEBL 080400Z 34008KT 9999 FEW018 10/07 Q1009 NOSIG
LEBL 080330Z 33007KT 9999 FEW018 10/07 Q1010 NOSIG
LEBL 080300Z 34008KT 9999 FEW018 10/07 Q1010 NOSIG
LEBL 080230Z 32007KT 9999 FEW010 10/07 Q1010 NOSIG
LEBL 080200Z 33005KT 9999 FEW010 10/07 Q1010 NOSIG
LEBL 080130Z 33006KT 9999 FEW020 11/07 Q1010 NOSIG
LEBL 080100Z 32006KT 9999 FEW020 11/08 Q1010 NOSIG
LEBL 080030Z 32005KT 9999 FEW020 11/08 Q1011 NOSIG
LEBL 080000Z 33006KT 9999 FEW020 11/08 Q1011 NOSIG
LEBL 072330Z 31005KT 9999 FEW024 11/08 Q1011 NOSIG
LEBL 072300Z 33006KT 9999 FEW024 11/08 Q1012 NOSIG
LEBL 072230Z 32006KT 9000 FEW011 11/09 Q1012 NOSIG
LEBL 072200Z 32005KT 9000 FEW015 11/09 Q1012 NOSIG
LEBL 072130Z VRB01KT 9999 FEW015 11/09 Q1012 NOSIG
LEBL 072100Z 00000KT 9000 FEW015 11/09 Q1012 NOSIG
LEBL 072030Z 33004KT 9000 FEW015 12/09 Q1012 NOSIG
LEBL 072000Z 32003KT 270V350 9000 FEW015 12/10 Q1012 NOSIG
LEBL 071930Z VRB02KT 9000 FEW015 12/09 Q1012 NOSIG
LEBL 071900Z VRB02KT 9000 FEW015 12/09 Q1012 NOSIG
LEBL 071830Z 28004KT 240V340 9000 FEW015 12/10 Q1012 NOSIG
LEBL 071800Z 23003KT 9000 FEW015 13/10 Q1012 NOSIG
LEBL 071730Z 23004KT 9000 SCT015 13/10 Q1012 NOSIG
LEBL 071700Z 21004KT 9999 SCT015 13/10 Q1012 NOSIG
LEBL 071630Z 22004KT 9999 FEW015 13/10 Q1012 NOSIG
LEBL 071600Z 21005KT 9999 FEW015 14/10 Q1012 NOSIG
LEBL 071530Z VRB02KT 9999 FEW025 14/11 Q1012 NOSIG
LEBL 071500Z 22003KT 200V260 9000 FEW025 14/10 Q1012 NOSIG
LEBL 071400Z VRB01KT 9999 FEW025 14/08 Q1012 NOSIG
LEBL 071330Z VRB02KT 9999 FEW025 14/08 Q1013 NOSIG
LEBL 071300Z VRB02KT 9999 FEW025 14/07 Q1013 NOSIG
LEBL 071230Z 32003KT 260V040 9999 FEW025 14/07 Q1013 NOSIG
LEBL 071200Z 31007KT 270V350 9999 FEW025 13/07 Q1014 NOSIG
LEBL 071130Z 32007KT 280V010 9999 FEW025 13/07 Q1014 NOSIG
LEBL 071030Z 32008KT 210V350 9999 FEW025 12/07 Q1015 NOSIG
LEBL 070930Z 32010KT CAVOK 10/07 Q1015 NOSIG
LEBL 070900Z 33012KT 8000 NSC 09/07 Q1014 NOSIG
LEBL 070830Z 32011KT 8000 NSC 08/06 Q1014 NOSIG
LEBL 070800Z 33012G22KT 270V360 9000 NSC 08/06 Q1014 NOSIG
LEBL 070730Z 33010KT 300V360 8000 NSC 08/06 Q1014 NOSIG
LEBL 070700Z 33010G21KT 280V350 8000 NSC 08/06 Q1014 NOSIG
LEBL 070630Z 33009KT 9000 NSC 08/06 Q1014 NOSIG
LEBL 070600Z 33010KT CAVOK 08/06 Q1014 NOSIG
LEBL 070530Z 32011KT CAVOK 08/06 Q1014 NOSIG
LEBL 070500Z 33006KT CAVOK 08/06 Q1014 NOSIG
LEBL 070430Z 32009KT CAVOK 09/06 Q1014 NOSIG
LEBL 070400Z 33007KT 9000 NSC 09/07 Q1014 NOSIG
LEBL 070330Z 33004KT 7000 FEW015 08/06 Q1014 NOSIG
LEBL 070300Z 33007KT 8000 FEW015 09/07 Q1014 NOSIG
LEBL 070230Z 30006KT 8000 FEW015 09/07 Q1015 NOSIG
LEBL 070200Z 33007KT 8000 NSC 09/07 Q1014 NOSIG
LEBL 070130Z 32008KT 8000 NSC 09/07 Q1014 NOSIG
LEBL 070100Z 33007KT 8000 NSC 09/07 Q1015 NOSIG
LEBL 070030Z 32007KT 6000 NSC 09/08 Q1015 NOSIG
LEBL 070000Z 31006KT 6000 NSC 09/08 Q1015 NOSIG
LEBL 062330Z 33005KT 6000 NSC 09/08 Q1015 NOSIG
LEBL 062300Z 33005KT 7000 FEW015 09/08 Q1015 NOSIG
LEBL 062230Z 31005KT 8000 FEW015 09/08 Q1015 NOSIG
LEBL 062200Z 33006KT 8000 FEW015 09/08 Q1015 NOSIG
LEBL 062130Z 32003KT 9000 FEW015 09/08 Q1015 NOSIG
LEBL 062100Z 33003KT 310V020 9999 FEW015 09/08 Q1015 NOSIG
LEBL 062030Z 33003KT 9999 FEW015 10/08 Q1015 NOSIG
LEBL 062000Z 32004KT 250V350 9999 FEW015 10/08 Q1015 NOSIG
LEBL 061930Z 33004KT 300V360 9999 FEW015 10/09 Q1015 NOSIG